EZY79PL EGPH-EGSS
Flight info
| Callsign | EZY79PL |
|---|---|
| Flight time | 1h 6m |
| Altitude | 33000 |
| Route | GOSAM P600 FENIK L612 NAVSO DCT AKOMU DCT VAMEB UL612 LISTO |
| Aircraft | A320/M-SDE2E3FGHIJ1RWXYZ/LB1 |
Departure
| Time | 2026-05-06 07:38 |
|---|---|
| Airport | Edinburgh Airport (EGPH) |
Arrival
| Time | 2026-05-06 08:45 |
|---|---|
| Airport | London Stansted Airport (EGSS) |
| Time | Latitude | Longitude | Altitude | Speed | Heading |
|---|---|---|---|---|---|
| 2026-05-06 07:02 | 55.94859 | -3.36608 | 109 ft | 0 kts | 144° |
| 2026-05-06 07:28 | 55.94862 | -3.36612 | 108 ft | 2 kts | 144° |
| 2026-05-06 07:28 | 55.94889 | -3.36646 | 109 ft | 2 kts | 144° |
| 2026-05-06 07:29 | 55.94902 | -3.36663 | 109 ft | 2 kts | 148° |
| 2026-05-06 07:29 | 55.94918 | -3.36674 | 109 ft | 2 kts | 184° |
| 2026-05-06 07:29 | 55.94924 | -3.36674 | 110 ft | 0 kts | 197° |
| 2026-05-06 07:32 | 55.94917 | -3.36692 | 110 ft | 0 kts | 244° |
| 2026-05-06 07:32 | 55.94902 | -3.36746 | 110 ft | 8 kts | 251° |
| 2026-05-06 07:32 | 55.94937 | -3.36830 | 111 ft | 11 kts | 7° |
| 2026-05-06 07:33 | 55.94986 | -3.36715 | 112 ft | 14 kts | 59° |
| 2026-05-06 07:33 | 55.95044 | -3.36544 | 112 ft | 18 kts | 58° |
| 2026-05-06 07:33 | 55.95086 | -3.36423 | 112 ft | 12 kts | 59° |
| 2026-05-06 07:33 | 55.95138 | -3.36267 | 108 ft | 13 kts | 59° |
| 2026-05-06 07:34 | 55.95190 | -3.36113 | 108 ft | 14 kts | 59° |
| 2026-05-06 07:34 | 55.95231 | -3.35986 | 106 ft | 15 kts | 60° |
| 2026-05-06 07:34 | 55.95279 | -3.35835 | 107 ft | 3 kts | 62° |
| 2026-05-06 07:34 | 55.95301 | -3.35778 | 108 ft | 8 kts | 54° |
| 2026-05-06 07:35 | 55.95340 | -3.35669 | 107 ft | 12 kts | 59° |
| 2026-05-06 07:35 | 55.95375 | -3.35564 | 110 ft | 10 kts | 59° |
| 2026-05-06 07:35 | 55.95413 | -3.35451 | 110 ft | 11 kts | 57° |
| 2026-05-06 07:35 | 55.95472 | -3.35412 | 109 ft | 12 kts | 333° |
| 2026-05-06 07:36 | 55.95501 | -3.35441 | 108 ft | 0 kts | 329° |
| 2026-05-06 07:36 | 55.95514 | -3.35455 | 108 ft | 9 kts | 329° |
| 2026-05-06 07:36 | 55.95576 | -3.35537 | 109 ft | 11 kts | 295° |
| 2026-05-06 07:37 | 55.95555 | -3.35609 | 109 ft | 6 kts | 241° |
| 2026-05-06 07:37 | 55.95554 | -3.35614 | 109 ft | 0 kts | 239° |
| 2026-05-06 07:37 | 55.95548 | -3.35630 | 108 ft | 18 kts | 239° |
| 2026-05-06 07:37 | 55.95321 | -3.36304 | 105 ft | 105 kts | 239° |
| 2026-05-06 07:38 | 55.94825 | -3.37752 | 183 ft | 159 kts | 238° |
| 2026-05-06 07:38 | 55.94250 | -3.39468 | 901 ft | 164 kts | 238° |
| 2026-05-06 07:38 | 55.93666 | -3.41219 | 1690 ft | 164 kts | 238° |
| 2026-05-06 07:38 | 55.93088 | -3.42960 | 2410 ft | 162 kts | 238° |
| 2026-05-06 07:39 | 55.92519 | -3.44688 | 3091 ft | 160 kts | 237° |
| 2026-05-06 07:39 | 55.91950 | -3.46389 | 3735 ft | 160 kts | 237° |
| 2026-05-06 07:39 | 55.91368 | -3.48039 | 4372 ft | 159 kts | 236° |
| 2026-05-06 07:39 | 55.90742 | -3.49693 | 4930 ft | 164 kts | 235° |
| 2026-05-06 07:40 | 55.90151 | -3.51584 | 5122 ft | 191 kts | 251° |
| 2026-05-06 07:40 | 55.89980 | -3.54079 | 5357 ft | 212 kts | 275° |
| 2026-05-06 07:40 | 55.89975 | -3.56857 | 5570 ft | 244 kts | 263° |
| 2026-05-06 07:40 | 55.89528 | -3.59942 | 5950 ft | 266 kts | 253° |
| 2026-05-06 07:41 | 55.88999 | -3.63110 | 6479 ft | 267 kts | 258° |
| 2026-05-06 07:41 | 55.88666 | -3.66359 | 7001 ft | 268 kts | 263° |
| 2026-05-06 07:41 | 55.88452 | -3.69673 | 7587 ft | 270 kts | 264° |
| 2026-05-06 07:41 | 55.88206 | -3.73011 | 8466 ft | 273 kts | 263° |
| 2026-05-06 07:42 | 55.87904 | -3.76372 | 9382 ft | 276 kts | 262° |
| 2026-05-06 07:42 | 55.87575 | -3.79760 | 10253 ft | 280 kts | 261° |
| 2026-05-06 07:42 | 55.87225 | -3.83272 | 10774 ft | 296 kts | 261° |
| 2026-05-06 07:42 | 55.86852 | -3.86979 | 11218 ft | 313 kts | 261° |
| 2026-05-06 07:43 | 55.86463 | -3.90843 | 11861 ft | 321 kts | 261° |
| 2026-05-06 07:43 | 55.86068 | -3.94767 | 12704 ft | 323 kts | 261° |
| 2026-05-06 07:43 | 55.85667 | -3.98714 | 13539 ft | 325 kts | 261° |
| 2026-05-06 07:43 | 55.85263 | -4.02691 | 14303 ft | 327 kts | 260° |
| 2026-05-06 07:44 | 55.84994 | -4.05328 | 14763 ft | 329 kts | 260° |
| 2026-05-06 07:44 | 55.84549 | -4.09334 | 15451 ft | 332 kts | 255° |
| 2026-05-06 07:44 | 55.83593 | -4.13087 | 16143 ft | 337 kts | 238° |
| 2026-05-06 07:44 | 55.82011 | -4.16190 | 16815 ft | 343 kts | 220° |
| 2026-05-06 07:45 | 55.80037 | -4.18641 | 17470 ft | 348 kts | 217° |
| 2026-05-06 07:45 | 55.78028 | -4.21079 | 18125 ft | 352 kts | 217° |
| 2026-05-06 07:45 | 55.75266 | -4.24175 | 18919 ft | 358 kts | 208° |
| 2026-05-06 07:45 | 55.73685 | -4.25255 | 19311 ft | 363 kts | 199° |
| 2026-05-06 07:46 | 55.71174 | -4.25971 | 19880 ft | 371 kts | 185° |
| 2026-05-06 07:46 | 55.68575 | -4.25519 | 20441 ft | 380 kts | 169° |
| 2026-05-06 07:46 | 55.66072 | -4.23896 | 20983 ft | 388 kts | 158° |
| 2026-05-06 07:46 | 55.63640 | -4.21743 | 21499 ft | 393 kts | 155° |
| 2026-05-06 07:47 | 55.61234 | -4.19412 | 22012 ft | 396 kts | 154° |
| 2026-05-06 07:47 | 55.58834 | -4.16978 | 22540 ft | 400 kts | 153° |
| 2026-05-06 07:47 | 55.56446 | -4.14536 | 23047 ft | 403 kts | 153° |
| 2026-05-06 07:47 | 55.54007 | -4.12063 | 23564 ft | 406 kts | 154° |
| 2026-05-06 07:48 | 55.51546 | -4.09608 | 23993 ft | 408 kts | 154° |
| 2026-05-06 07:48 | 55.49055 | -4.07162 | 24428 ft | 411 kts | 154° |
| 2026-05-06 07:48 | 55.46549 | -4.04727 | 24840 ft | 413 kts | 154° |
| 2026-05-06 07:48 | 55.44026 | -4.02287 | 25241 ft | 415 kts | 154° |
| 2026-05-06 07:49 | 55.41491 | -3.99841 | 25671 ft | 417 kts | 154° |
| 2026-05-06 07:49 | 55.38931 | -3.97372 | 26085 ft | 419 kts | 154° |
| 2026-05-06 07:49 | 55.36369 | -3.94902 | 26496 ft | 422 kts | 154° |
| 2026-05-06 07:49 | 55.33790 | -3.92416 | 26884 ft | 424 kts | 154° |
| 2026-05-06 07:50 | 55.31197 | -3.89923 | 27269 ft | 426 kts | 154° |
| 2026-05-06 07:50 | 55.28587 | -3.87416 | 27648 ft | 428 kts | 154° |
| 2026-05-06 07:50 | 55.25964 | -3.84897 | 28031 ft | 431 kts | 154° |
| 2026-05-06 07:50 | 55.23330 | -3.82364 | 28404 ft | 433 kts | 154° |
| 2026-05-06 07:51 | 55.20673 | -3.79859 | 28775 ft | 435 kts | 156° |
| 2026-05-06 07:51 | 55.18009 | -3.77487 | 29129 ft | 436 kts | 157° |
| 2026-05-06 07:51 | 55.15275 | -3.75149 | 29498 ft | 438 kts | 158° |
| 2026-05-06 07:51 | 55.12516 | -3.72840 | 29865 ft | 441 kts | 158° |
| 2026-05-06 07:52 | 55.09743 | -3.70533 | 30201 ft | 443 kts | 158° |
| 2026-05-06 07:52 | 55.06963 | -3.68205 | 30493 ft | 445 kts | 158° |
| 2026-05-06 07:52 | 55.04169 | -3.65839 | 30772 ft | 447 kts | 157° |
| 2026-05-06 07:52 | 55.01373 | -3.63450 | 31045 ft | 449 kts | 157° |
| 2026-05-06 07:53 | 54.98566 | -3.61042 | 31317 ft | 451 kts | 157° |
| 2026-05-06 07:53 | 54.95749 | -3.58624 | 31594 ft | 452 kts | 157° |
| 2026-05-06 07:53 | 54.92926 | -3.56208 | 31974 ft | 451 kts | 157° |
| 2026-05-06 07:53 | 54.90115 | -3.53814 | 32375 ft | 450 kts | 157° |
| 2026-05-06 07:54 | 54.87305 | -3.51432 | 32753 ft | 449 kts | 157° |
| 2026-05-06 07:54 | 54.84502 | -3.49065 | 33045 ft | 449 kts | 157° |
| 2026-05-06 07:54 | 54.81719 | -3.46722 | 33098 ft | 438 kts | 158° |
| 2026-05-06 07:54 | 54.79023 | -3.44449 | 33097 ft | 427 kts | 158° |
| 2026-05-06 07:55 | 54.73679 | -3.39953 | 33095 ft | 427 kts | 158° |
| 2026-05-06 07:55 | 54.68333 | -3.35469 | 33095 ft | 427 kts | 158° |
| 2026-05-06 07:56 | 54.62993 | -3.31001 | 33095 ft | 427 kts | 158° |
| 2026-05-06 07:56 | 54.57648 | -3.26551 | 33088 ft | 426 kts | 158° |
| 2026-05-06 07:57 | 54.52342 | -3.22133 | 33087 ft | 426 kts | 158° |
| 2026-05-06 07:57 | 54.47005 | -3.17698 | 33097 ft | 426 kts | 158° |
| 2026-05-06 07:58 | 54.41660 | -3.13281 | 33097 ft | 426 kts | 158° |
| 2026-05-06 07:58 | 54.36314 | -3.08877 | 33101 ft | 426 kts | 158° |
| 2026-05-06 07:59 | 54.30972 | -3.04487 | 33099 ft | 425 kts | 158° |
| 2026-05-06 07:59 | 54.25640 | -3.00121 | 33092 ft | 425 kts | 158° |
| 2026-05-06 08:00 | 54.20302 | -2.95759 | 33085 ft | 425 kts | 158° |
| 2026-05-06 08:00 | 54.14957 | -2.91447 | 33079 ft | 425 kts | 160° |
| 2026-05-06 08:01 | 54.09537 | -2.87470 | 33080 ft | 424 kts | 161° |
| 2026-05-06 08:01 | 54.04087 | -2.83629 | 33086 ft | 423 kts | 161° |
| 2026-05-06 08:02 | 53.98691 | -2.79765 | 33079 ft | 424 kts | 161° |
| 2026-05-06 08:02 | 53.93272 | -2.75842 | 33078 ft | 424 kts | 160° |
| 2026-05-06 08:03 | 53.87848 | -2.71908 | 33088 ft | 424 kts | 160° |
| 2026-05-06 08:03 | 53.82424 | -2.67998 | 33090 ft | 424 kts | 160° |
| 2026-05-06 08:04 | 53.77002 | -2.64104 | 33090 ft | 424 kts | 161° |
| 2026-05-06 08:04 | 53.71574 | -2.60210 | 33084 ft | 424 kts | 161° |
| 2026-05-06 08:05 | 53.66141 | -2.56333 | 33089 ft | 424 kts | 161° |
| 2026-05-06 08:05 | 53.60709 | -2.52475 | 33085 ft | 424 kts | 161° |
| 2026-05-06 08:06 | 53.55272 | -2.48631 | 33087 ft | 424 kts | 160° |
| 2026-05-06 08:06 | 53.49840 | -2.44791 | 33085 ft | 423 kts | 160° |
| 2026-05-06 08:07 | 53.44412 | -2.40946 | 33084 ft | 423 kts | 160° |
| 2026-05-06 08:07 | 53.38986 | -2.37115 | 33085 ft | 423 kts | 160° |
| 2026-05-06 08:08 | 53.33559 | -2.33315 | 33084 ft | 423 kts | 160° |
| 2026-05-06 08:08 | 53.28154 | -2.29541 | 33091 ft | 424 kts | 160° |
| 2026-05-06 08:09 | 53.22724 | -2.25736 | 33088 ft | 423 kts | 160° |
| 2026-05-06 08:09 | 53.17293 | -2.21957 | 33085 ft | 423 kts | 160° |
| 2026-05-06 08:10 | 53.12122 | -2.17225 | 33066 ft | 428 kts | 146° |
| 2026-05-06 08:10 | 53.07358 | -2.11380 | 32686 ft | 418 kts | 146° |
| 2026-05-06 08:11 | 53.05021 | -2.08527 | 32408 ft | 416 kts | 146° |
| 2026-05-06 08:11 | 53.02699 | -2.05701 | 32150 ft | 414 kts | 146° |
| 2026-05-06 08:11 | 53.00372 | -2.02879 | 31888 ft | 413 kts | 146° |
| 2026-05-06 08:11 | 52.98059 | -2.00081 | 31623 ft | 411 kts | 146° |
| 2026-05-06 08:12 | 52.95747 | -1.97290 | 31364 ft | 410 kts | 146° |
| 2026-05-06 08:12 | 52.93452 | -1.94524 | 31106 ft | 408 kts | 146° |
| 2026-05-06 08:12 | 52.91161 | -1.91761 | 30850 ft | 406 kts | 146° |
| 2026-05-06 08:12 | 52.88877 | -1.89007 | 30592 ft | 405 kts | 146° |
| 2026-05-06 08:13 | 52.86604 | -1.86272 | 30352 ft | 403 kts | 146° |
| 2026-05-06 08:13 | 52.84342 | -1.83554 | 30097 ft | 402 kts | 146° |
| 2026-05-06 08:13 | 52.82083 | -1.80844 | 29811 ft | 400 kts | 146° |
| 2026-05-06 08:13 | 52.79833 | -1.78146 | 29518 ft | 398 kts | 146° |
| 2026-05-06 08:14 | 52.77596 | -1.75469 | 29216 ft | 396 kts | 146° |
| 2026-05-06 08:14 | 52.75387 | -1.72828 | 28854 ft | 389 kts | 147° |
| 2026-05-06 08:14 | 52.73079 | -1.70572 | 28442 ft | 382 kts | 155° |
| 2026-05-06 08:14 | 52.70738 | -1.68566 | 28034 ft | 377 kts | 155° |
| 2026-05-06 08:15 | 52.68419 | -1.66573 | 27628 ft | 373 kts | 155° |
| 2026-05-06 08:15 | 52.66128 | -1.64602 | 27206 ft | 370 kts | 155° |
| 2026-05-06 08:15 | 52.63861 | -1.62650 | 26794 ft | 366 kts | 155° |
| 2026-05-06 08:15 | 52.61613 | -1.60715 | 26365 ft | 363 kts | 155° |
| 2026-05-06 08:16 | 52.59458 | -1.58860 | 25976 ft | 361 kts | 155° |
| 2026-05-06 08:16 | 52.57163 | -1.56890 | 25535 ft | 359 kts | 155° |
| 2026-05-06 08:16 | 52.54953 | -1.55002 | 25106 ft | 357 kts | 155° |
| 2026-05-06 08:16 | 52.52755 | -1.53131 | 24671 ft | 355 kts | 155° |
| 2026-05-06 08:17 | 52.50563 | -1.51270 | 24221 ft | 354 kts | 155° |
| 2026-05-06 08:17 | 52.48377 | -1.49411 | 23830 ft | 354 kts | 155° |
| 2026-05-06 08:17 | 52.46221 | -1.47578 | 23353 ft | 353 kts | 155° |
| 2026-05-06 08:17 | 52.44046 | -1.45728 | 22888 ft | 351 kts | 155° |
| 2026-05-06 08:18 | 52.41888 | -1.43891 | 22461 ft | 348 kts | 155° |
| 2026-05-06 08:18 | 52.39749 | -1.42070 | 21994 ft | 346 kts | 155° |
| 2026-05-06 08:18 | 52.37613 | -1.40261 | 21575 ft | 344 kts | 155° |
| 2026-05-06 08:18 | 52.35493 | -1.38469 | 21159 ft | 342 kts | 155° |
| 2026-05-06 08:19 | 52.33383 | -1.36688 | 20736 ft | 341 kts | 155° |
| 2026-05-06 08:19 | 52.31285 | -1.34917 | 20322 ft | 339 kts | 155° |
| 2026-05-06 08:19 | 52.29192 | -1.33145 | 19903 ft | 339 kts | 154° |
| 2026-05-06 08:19 | 52.27114 | -1.31277 | 19573 ft | 341 kts | 152° |
| 2026-05-06 08:20 | 52.25062 | -1.29342 | 19230 ft | 340 kts | 151° |
| 2026-05-06 08:20 | 52.23028 | -1.27383 | 18892 ft | 339 kts | 151° |
| 2026-05-06 08:20 | 52.21009 | -1.25434 | 18545 ft | 337 kts | 151° |
| 2026-05-06 08:20 | 52.18991 | -1.23500 | 18199 ft | 336 kts | 152° |
| 2026-05-06 08:21 | 52.16979 | -1.21588 | 17839 ft | 334 kts | 152° |
| 2026-05-06 08:21 | 52.14971 | -1.19693 | 17503 ft | 333 kts | 152° |
| 2026-05-06 08:21 | 52.12971 | -1.17817 | 17172 ft | 331 kts | 152° |
| 2026-05-06 08:21 | 52.10978 | -1.15950 | 16851 ft | 330 kts | 152° |
| 2026-05-06 08:22 | 52.08994 | -1.14095 | 16507 ft | 328 kts | 152° |
| 2026-05-06 08:22 | 52.07021 | -1.12249 | 16181 ft | 326 kts | 152° |
| 2026-05-06 08:22 | 52.05057 | -1.10414 | 15851 ft | 325 kts | 152° |
| 2026-05-06 08:22 | 52.03114 | -1.08551 | 15517 ft | 324 kts | 146° |
| 2026-05-06 08:23 | 52.01464 | -1.06071 | 15233 ft | 324 kts | 127° |
| 2026-05-06 08:23 | 52.00409 | -1.02864 | 15042 ft | 323 kts | 107° |
| 2026-05-06 08:23 | 52.00092 | -0.99270 | 15002 ft | 323 kts | 90° |
| 2026-05-06 08:23 | 52.00059 | -0.95625 | 15008 ft | 323 kts | 90° |
| 2026-05-06 08:24 | 52.00032 | -0.91981 | 15009 ft | 323 kts | 89° |
| 2026-05-06 08:24 | 52.00009 | -0.88341 | 15005 ft | 323 kts | 89° |
| 2026-05-06 08:24 | 51.99984 | -0.84699 | 15004 ft | 323 kts | 90° |
| 2026-05-06 08:24 | 51.99958 | -0.81051 | 14841 ft | 322 kts | 90° |
| 2026-05-06 08:25 | 51.99931 | -0.77473 | 14595 ft | 320 kts | 90° |
| 2026-05-06 08:25 | 51.99902 | -0.73877 | 14357 ft | 318 kts | 90° |
| 2026-05-06 08:25 | 51.99872 | -0.70300 | 14113 ft | 316 kts | 90° |
| 2026-05-06 08:25 | 51.99843 | -0.66742 | 13874 ft | 314 kts | 90° |
| 2026-05-06 08:26 | 51.99813 | -0.63213 | 13612 ft | 313 kts | 89° |
| 2026-05-06 08:26 | 51.99777 | -0.59698 | 13338 ft | 311 kts | 90° |
| 2026-05-06 08:26 | 51.99735 | -0.56187 | 12918 ft | 312 kts | 90° |
| 2026-05-06 08:26 | 51.99693 | -0.52651 | 12480 ft | 313 kts | 89° |
| 2026-05-06 08:27 | 51.99649 | -0.49123 | 12050 ft | 314 kts | 90° |
| 2026-05-06 08:27 | 51.99605 | -0.45578 | 11622 ft | 314 kts | 90° |
| 2026-05-06 08:27 | 51.99560 | -0.42031 | 11206 ft | 314 kts | 89° |
| 2026-05-06 08:27 | 51.99516 | -0.38491 | 10790 ft | 314 kts | 89° |
| 2026-05-06 08:28 | 51.99470 | -0.34976 | 10509 ft | 309 kts | 89° |
| 2026-05-06 08:28 | 51.99425 | -0.31551 | 10266 ft | 297 kts | 89° |
| 2026-05-06 08:28 | 51.99380 | -0.28285 | 10019 ft | 281 kts | 89° |
| 2026-05-06 08:28 | 51.99337 | -0.25188 | 9723 ft | 269 kts | 89° |
| 2026-05-06 08:29 | 51.99296 | -0.22149 | 9391 ft | 271 kts | 89° |
| 2026-05-06 08:29 | 51.99254 | -0.19124 | 9005 ft | 263 kts | 88° |
| 2026-05-06 08:29 | 51.99212 | -0.16204 | 8643 ft | 254 kts | 88° |
| 2026-05-06 08:29 | 51.99171 | -0.13357 | 8294 ft | 252 kts | 88° |
| 2026-05-06 08:30 | 51.99131 | -0.10526 | 7950 ft | 251 kts | 87° |
| 2026-05-06 08:30 | 51.99091 | -0.07708 | 7610 ft | 249 kts | 88° |
| 2026-05-06 08:30 | 51.99051 | -0.04935 | 7284 ft | 249 kts | 87° |
| 2026-05-06 08:30 | 51.99010 | -0.02142 | 6954 ft | 248 kts | 87° |
| 2026-05-06 08:31 | 51.98969 | 0.00646 | 6631 ft | 246 kts | 87° |
| 2026-05-06 08:31 | 51.98927 | 0.03415 | 6309 ft | 245 kts | 87° |
| 2026-05-06 08:31 | 51.98886 | 0.06160 | 5966 ft | 243 kts | 87° |
| 2026-05-06 08:31 | 51.98845 | 0.08906 | 5627 ft | 242 kts | 87° |
| 2026-05-06 08:32 | 51.98805 | 0.11620 | 5296 ft | 240 kts | 87° |
| 2026-05-06 08:32 | 51.98763 | 0.14318 | 4992 ft | 238 kts | 87° |
| 2026-05-06 08:32 | 51.98714 | 0.16979 | 4703 ft | 234 kts | 87° |
| 2026-05-06 08:32 | 51.98669 | 0.19609 | 4414 ft | 232 kts | 87° |
| 2026-05-06 08:33 | 51.98440 | 0.22190 | 4117 ft | 235 kts | 109° |
| 2026-05-06 08:33 | 51.97433 | 0.24289 | 3828 ft | 242 kts | 142° |
| 2026-05-06 08:33 | 51.95868 | 0.25235 | 3553 ft | 244 kts | 176° |
| 2026-05-06 08:33 | 51.94240 | 0.24717 | 3318 ft | 238 kts | 210° |
| 2026-05-06 08:34 | 51.93044 | 0.22973 | 3102 ft | 229 kts | 237° |
| 2026-05-06 08:34 | 51.91362 | 0.18890 | 3004 ft | 205 kts | 241° |
| 2026-05-06 08:34 | 51.90570 | 0.16872 | 3008 ft | 217 kts | 241° |
| 2026-05-06 08:35 | 51.89763 | 0.14795 | 3009 ft | 218 kts | 241° |
| 2026-05-06 08:35 | 51.88959 | 0.12706 | 3007 ft | 218 kts | 241° |
| 2026-05-06 08:35 | 51.88156 | 0.10628 | 3010 ft | 217 kts | 241° |
| 2026-05-06 08:35 | 51.87356 | 0.08558 | 3010 ft | 218 kts | 241° |
| 2026-05-06 08:36 | 51.86548 | 0.06490 | 3009 ft | 217 kts | 241° |
| 2026-05-06 08:36 | 51.85679 | 0.04549 | 3008 ft | 209 kts | 230° |
| 2026-05-06 08:36 | 51.84663 | 0.02887 | 3007 ft | 208 kts | 227° |
| 2026-05-06 08:36 | 51.83620 | 0.01261 | 3009 ft | 208 kts | 226° |
| 2026-05-06 08:37 | 51.82930 | 0.00196 | 3005 ft | 207 kts | 226° |
| 2026-05-06 08:37 | 51.81882 | -0.01420 | 3008 ft | 208 kts | 226° |
| 2026-05-06 08:37 | 51.80842 | -0.03038 | 3005 ft | 208 kts | 226° |
| 2026-05-06 08:37 | 51.79796 | -0.04659 | 3026 ft | 209 kts | 226° |
| 2026-05-06 08:38 | 51.78247 | -0.06451 | 3035 ft | 210 kts | 194° |
| 2026-05-06 08:38 | 51.76812 | -0.06394 | 3031 ft | 208 kts | 155° |
| 2026-05-06 08:38 | 51.75632 | -0.05148 | 3022 ft | 202 kts | 130° |
| 2026-05-06 08:38 | 51.75044 | -0.04003 | 3044 ft | 188 kts | 117° |
| 2026-05-06 08:39 | 51.74533 | -0.02210 | 3031 ft | 166 kts | 99° |
| 2026-05-06 08:39 | 51.74373 | -0.00549 | 3044 ft | 140 kts | 85° |
| 2026-05-06 08:39 | 51.74469 | 0.01026 | 3032 ft | 141 kts | 71° |
| 2026-05-06 08:39 | 51.74802 | 0.02511 | 3010 ft | 141 kts | 57° |
| 2026-05-06 08:40 | 51.75356 | 0.03815 | 3002 ft | 142 kts | 44° |
| 2026-05-06 08:40 | 51.76073 | 0.04919 | 3000 ft | 143 kts | 39° |
| 2026-05-06 08:40 | 51.76814 | 0.06023 | 3007 ft | 143 kts | 39° |
| 2026-05-06 08:40 | 51.77544 | 0.07110 | 2996 ft | 143 kts | 39° |
| 2026-05-06 08:41 | 51.78275 | 0.08199 | 2895 ft | 143 kts | 39° |
| 2026-05-06 08:41 | 51.78991 | 0.09266 | 2745 ft | 142 kts | 40° |
| 2026-05-06 08:41 | 51.79716 | 0.10346 | 2569 ft | 142 kts | 39° |
| 2026-05-06 08:41 | 51.80440 | 0.11426 | 2382 ft | 141 kts | 38° |
| 2026-05-06 08:42 | 51.81161 | 0.12501 | 2189 ft | 141 kts | 38° |
| 2026-05-06 08:42 | 51.81881 | 0.13576 | 1984 ft | 140 kts | 39° |
| 2026-05-06 08:42 | 51.82600 | 0.14642 | 1799 ft | 140 kts | 38° |
| 2026-05-06 08:42 | 51.83315 | 0.15710 | 1610 ft | 140 kts | 38° |
| 2026-05-06 08:43 | 51.84028 | 0.16781 | 1414 ft | 141 kts | 40° |
| 2026-05-06 08:43 | 51.84738 | 0.17869 | 1185 ft | 140 kts | 39° |
| 2026-05-06 08:43 | 51.85457 | 0.18927 | 978 ft | 140 kts | 38° |
| 2026-05-06 08:43 | 51.86173 | 0.19990 | 790 ft | 140 kts | 38° |
| 2026-05-06 08:44 | 51.86888 | 0.21065 | 590 ft | 140 kts | 39° |
| 2026-05-06 08:44 | 51.87592 | 0.22129 | 400 ft | 139 kts | 38° |
| 2026-05-06 08:44 | 51.88272 | 0.23144 | 349 ft | 117 kts | 37° |
| 2026-05-06 08:44 | 51.88740 | 0.23840 | 354 ft | 66 kts | 42° |
| 2026-05-06 08:45 | 51.88976 | 0.24192 | 355 ft | 37 kts | 45° |
| 2026-05-06 08:45 | 51.89080 | 0.24449 | 359 ft | 19 kts | 69° |
| 2026-05-06 08:45 | 51.89133 | 0.24661 | 359 ft | 21 kts | 66° |
| 2026-05-06 08:45 | 51.89164 | 0.24785 | 357 ft | 13 kts | 70° |
| 2026-05-06 08:46 | 51.89155 | 0.24921 | 358 ft | 12 kts | 93° |
| 2026-05-06 08:46 | 51.89203 | 0.25022 | 358 ft | 13 kts | 45° |
| 2026-05-06 08:46 | 51.89250 | 0.25150 | 362 ft | 14 kts | 66° |
| 2026-05-06 08:46 | 51.89321 | 0.25266 | 359 ft | 16 kts | 43° |
| 2026-05-06 08:47 | 51.89407 | 0.25396 | 362 ft | 18 kts | 49° |
| 2026-05-06 08:47 | 51.89396 | 0.25526 | 362 ft | 10 kts | 127° |
| 2026-05-06 08:47 | 51.89350 | 0.25599 | 357 ft | 9 kts | 133° |
| 2026-05-06 08:47 | 51.89311 | 0.25667 | 360 ft | 8 kts | 133° |
| 2026-05-06 08:48 | 51.89273 | 0.25733 | 357 ft | 10 kts | 133° |
| 2026-05-06 08:48 | 51.89235 | 0.25795 | 364 ft | 4 kts | 147° |
| 2026-05-06 08:48 | 51.89210 | 0.25800 | 361 ft | 3 kts | 185° |
| 2026-05-06 08:48 | 51.89190 | 0.25779 | 364 ft | 0 kts | 221° |
| 2026-05-06 08:49 | 51.89170 | 0.25749 | 362 ft | 6 kts | 225° |
| 2026-05-06 08:49 | 51.89160 | 0.25733 | 357 ft | 0 kts | 223° |